Portada
METAR-TAF:

METAR-TAF

Aeropuertos :

El Hierro, España

Aeropuerto de El Hierro

latitud: 27-49N, longitud: 017-53W, altitud: 32 m

Observación

El informe se hizo hace 23 minutos, a las 10:30 UTC
Viento 17 kt del norte
Temperatura 24°C
Humedad 65%
Presión 1018 hPa
Visibilidad 10 km o más
Escasas nubes a una altura de 3000 ft

METAR: GCHI 181030Z 35017KT 9999 FEW030 24/17 Q1018

Hora: 11:53 (10:53 UTC)

Pronóstico

El informe se hizo hace 2 horas y 53 minutos, a las 08:00 UTC
Pronóstico válido del 18 a las 09 UTC al 19 a las 09 UTC
Viento 20 kt del norte
Visibilidad 10 km o más
Escasas nubes a una altura de 3000 ft
Probabilidad 40% :
Temporalmente
del 18 a las 09 UTC al 19 a las 09 UTC
Viento 20 kt del norte con ráfagas de 30 kt

TAF: GCHI 180800Z 1809/1909 36020KT 9999 FEW030 TX25/1814Z TN22/1905Z PROB40 TEMPO 1809/1909 36020G30KT

Observaciones y pronósticos meteorológicos de más de 4000 aeropuertos (mensajes METAR y TAF).

Los puntos amarillos y rojos representan las estaciones disponibles.

Ponga el ratón en el punto deseado para ver el nombre de la estación.

Haga clic para ver las observaciones y los pronósticos meteorológicos.

Para cambiar el mapa : haga clic en los botones verdes con una cruz de color negro para hacer un zoom, en el botón verde con un guión para alejar o en las flechas verdes para mapas adyacentes.


METAR-TAF: